sensor_id;sensor_type;location;lat;lon;timestamp;pressure;altitude;pressure_sealevel;temperature;humidity
32330;BME280;18807;52.434;13.238;2023-08-01T00:06:01;74284.28;;;-142.05;100.00
32330;BME280;18807;52.434;13.238;2023-08-01T00:13:37;74302.63;;;-142.05;100.00
32330;BME280;18807;52.434;13.238;2023-08-01T00:21:11;74294.47;;;-142.05;100.00
32330;BME280;18807;52.434;13.238;2023-08-01T00:28:47;74314.88;;;-142.05;100.00
32330;BME280;18807;52.434;13.238;2023-08-01T00:36:21;74310.78;;;-142.05;100.00
32330;BME280;18807;52.434;13.238;2023-08-01T00:43:57;74316.91;;;-142.05;100.00
32330;BME280;18807;52.434;13.238;2023-08-01T00:51:31;74323.03;;;-142.05;100.00
32330;BME280;18807;52.434;13.238;2023-08-01T00:59:08;74312.84;;;-142.05;100.00
32330;BME280;18807;52.434;13.238;2023-08-01T01:06:46;74308.75;;;-142.05;100.00
32330;BME280;18807;52.434;13.238;2023-08-01T01:14:23;74308.75;;;-142.05;100.00
32330;BME280;18807;52.434;13.238;2023-08-01T01:22:00;74294.47;;;-142.05;100.00
32330;BME280;18807;52.434;13.238;2023-08-01T01:29:38;74265.91;;;-142.05;100.00
32330;BME280;18807;52.434;13.238;2023-08-01T01:37:14;74265.91;;;-142.05;100.00
32330;BME280;18807;52.434;13.238;2023-08-01T01:44:49;74278.16;;;-142.05;100.00
32330;BME280;18807;52.434;13.238;2023-08-01T01:52:25;74272.03;;;-142.05;100.00
32330;BME280;18807;52.434;13.238;2023-08-01T01:59:59;74255.72;;;-142.05;100.00
32330;BME280;18807;52.434;13.238;2023-08-01T02:07:35;74249.59;;;-142.05;100.00
32330;BME280;18807;52.434;13.238;2023-08-01T02:15:09;74235.31;;;-142.05;100.00
32330;BME280;18807;52.434;13.238;2023-08-01T02:22:45;74223.09;;;-142.05;100.00
32330;BME280;18807;52.434;13.238;2023-08-01T02:30:20;74225.13;;;-142.05;100.00
32330;BME280;18807;52.434;13.238;2023-08-01T02:37:56;74225.13;;;-142.05;100.00
32330;BME280;18807;52.434;13.238;2023-08-01T02:45:30;74216.97;;;-142.05;100.00
32330;BME280;18807;52.434;13.238;2023-08-01T02:53:06;74206.75;;;-142.05;100.00
32330;BME280;18807;52.434;13.238;2023-08-01T03:00:40;74198.59;;;-142.05;100.00
32330;BME280;18807;52.434;13.238;2023-08-01T03:08:17;74204.72;;;-142.05;100.00
32330;BME280;18807;52.434;13.238;2023-08-01T03:15:52;74196.56;;;-142.05;100.00
32330;BME280;18807;52.434;13.238;2023-08-01T03:23:28;74188.41;;;-142.05;100.00
32330;BME280;18807;52.434;13.238;2023-08-01T03:31:02;74190.44;;;-142.05;100.00
32330;BME280;18807;52.434;13.238;2023-08-01T03:38:38;74180.25;;;-142.05;100.00
32330;BME280;18807;52.434;13.238;2023-08-01T03:46:13;74178.22;;;-142.05;100.00
32330;BME280;18807;52.434;13.238;2023-08-01T03:53:49;74174.13;;;-142.05;100.00
32330;BME280;18807;52.434;13.238;2023-08-01T04:01:39;74180.25;;;-142.05;100.00
32330;BME280;18807;52.434;13.238;2023-08-01T04:09:15;74168.00;;;-142.05;100.00
32330;BME280;18807;52.434;13.238;2023-08-01T04:16:49;74163.94;;;-142.05;100.00
32330;BME280;18807;52.434;13.238;2023-08-01T04:24:25;74159.84;;;-142.05;100.00
32330;BME280;18807;52.434;13.238;2023-08-01T04:32:00;74153.72;;;-142.05;100.00
32330;BME280;18807;52.434;13.238;2023-08-01T04:39:36;74149.66;;;-142.05;100.00
32330;BME280;18807;52.434;13.238;2023-08-01T04:47:11;74135.38;;;-142.05;100.00
32330;BME280;18807;52.434;13.238;2023-08-01T04:54:48;74121.09;;;-142.05;100.00
32330;BME280;18807;52.434;13.238;2023-08-01T05:02:22;74117.00;;;-142.05;100.00
32330;BME280;18807;52.434;13.238;2023-08-01T05:09:58;74104.78;;;-142.05;100.00
32330;BME280;18807;52.434;13.238;2023-08-01T05:17:32;74090.50;;;-142.05;100.00
32330;BME280;18807;52.434;13.238;2023-08-01T05:25:08;74078.25;;;-142.05;100.00
32330;BME280;18807;52.434;13.238;2023-08-01T05:32:43;74074.19;;;-142.05;100.00
32330;BME280;18807;52.434;13.238;2023-08-01T05:40:20;74068.06;;;-142.05;100.00
32330;BME280;18807;52.434;13.238;2023-08-01T05:47:55;74059.91;;;-142.05;100.00
32330;BME280;18807;52.434;13.238;2023-08-01T05:55:31;74061.94;;;-142.05;100.00
32330;BME280;18807;52.434;13.238;2023-08-01T06:03:06;74057.84;;;-142.05;100.00
32330;BME280;18807;52.434;13.238;2023-08-01T06:10:42;74049.69;;;-142.05;100.00
32330;BME280;18807;52.434;13.238;2023-08-01T06:18:16;74045.63;;;-142.05;100.00
32330;BME280;18807;52.434;13.238;2023-08-01T06:25:52;74039.50;;;-142.05;100.00
32330;BME280;18807;52.434;13.238;2023-08-01T06:33:26;74037.47;;;-142.05;100.00
32330;BME280;18807;52.434;13.238;2023-08-01T06:41:02;74025.22;;;-142.05;100.00
32330;BME280;18807;52.434;13.238;2023-08-01T06:48:37;74015.03;;;-142.05;100.00
32330;BME280;18807;52.434;13.238;2023-08-01T06:56:13;74010.94;;;-142.05;100.00
32330;BME280;18807;52.434;13.238;2023-08-01T07:03:48;74013.00;;;-142.05;100.00
32330;BME280;18807;52.434;13.238;2023-08-01T07:11:25;73992.59;;;-142.05;100.00
32330;BME280;18807;52.434;13.238;2023-08-01T07:19:00;73986.47;;;-142.05;100.00
32330;BME280;18807;52.434;13.238;2023-08-01T07:26:36;73951.78;;;-142.05;100.00
32330;BME280;18807;52.434;13.238;2023-08-01T07:34:11;73941.59;;;-142.05;100.00
32330;BME280;18807;52.434;13.238;2023-08-01T07:41:46;73915.09;;;-142.05;100.00
32330;BME280;18807;52.434;13.238;2023-08-01T07:49:21;73900.81;;;-142.05;100.00
32330;BME280;18807;52.434;13.238;2023-08-01T07:56:57;73857.97;;;-142.05;100.00
32330;BME280;18807;52.434;13.238;2023-08-01T08:04:31;73817.19;;;-142.05;100.00
32330;BME280;18807;52.434;13.238;2023-08-01T08:12:07;73784.53;;;-142.05;100.00
32330;BME280;18807;52.434;13.238;2023-08-01T08:19:42;73758.03;;;-142.05;100.00
32330;BME280;18807;52.434;13.238;2023-08-01T08:27:17;73747.84;;;-142.05;100.00
32330;BME280;18807;52.434;13.238;2023-08-01T08:34:52;73731.53;;;-142.05;100.00
32330;BME280;18807;52.434;13.238;2023-08-01T08:42:46;73719.28;;;-142.05;100.00
32330;BME280;18807;52.434;13.238;2023-08-01T08:50:22;73700.94;;;-142.05;100.00
32330;BME280;18807;52.434;13.238;2023-08-01T08:58:00;73686.66;;;-142.05;100.00
32330;BME280;18807;52.434;13.238;2023-08-01T09:05:39;73647.91;;;-142.05;93.12
32330;BME280;18807;52.434;13.238;2023-08-01T09:13:16;73637.69;;;-142.05;81.64
32330;BME280;18807;52.434;13.238;2023-08-01T09:20:50;73621.38;;;-142.05;78.06
32330;BME280;18807;52.434;13.238;2023-08-01T09:28:26;73649.94;;;-142.05;77.22
32330;BME280;18807;52.434;13.238;2023-08-01T09:36:00;73672.38;;;-142.05;81.65
32330;BME280;18807;52.434;13.238;2023-08-01T09:43:39;73658.09;;;-142.05;83.70
32330;BME280;18807;52.434;13.238;2023-08-01T09:51:15;73637.69;;;-142.05;82.21
32330;BME280;18807;52.434;13.238;2023-08-01T09:58:53;73645.84;;;-142.05;79.18
32330;BME280;18807;52.434;13.238;2023-08-01T10:06:29;73649.94;;;-142.05;80.68
32330;BME280;18807;52.434;13.238;2023-08-01T10:14:07;73656.06;;;-142.05;82.08
32330;BME280;18807;52.434;13.238;2023-08-01T10:21:42;73658.09;;;-142.05;81.65
32330;BME280;18807;52.434;13.238;2023-08-01T10:29:19;73672.38;;;-142.05;84.52
32330;BME280;18807;52.434;13.238;2023-08-01T10:37:14;73739.69;;;-142.05;100.00
32330;BME280;18807;52.434;13.238;2023-08-01T10:44:51;73772.31;;;-142.05;100.00
32330;BME280;18807;52.434;13.238;2023-08-01T10:52:26;73829.41;;;-142.05;100.00
32330;BME280;18807;52.434;13.238;2023-08-01T11:00:05;73886.53;;;-142.05;100.00
32330;BME280;18807;52.434;13.238;2023-08-01T11:07:53;73898.75;;;-142.05;100.00
32330;BME280;18807;52.434;13.238;2023-08-01T11:15:30;73943.63;;;-142.05;100.00
32330;BME280;18807;52.434;13.238;2023-08-01T11:23:05;73945.69;;;-142.05;100.00
32330;BME280;18807;52.434;13.238;2023-08-01T11:30:43;73935.47;;;-142.05;100.00
32330;BME280;18807;52.434;13.238;2023-08-01T11:38:19;73927.31;;;-142.05;100.00
32330;BME280;18807;52.434;13.238;2023-08-01T11:45:58;73919.16;;;-142.05;100.00
32330;BME280;18807;52.434;13.238;2023-08-01T11:53:34;73898.75;;;-142.05;100.00
32330;BME280;18807;52.434;13.238;2023-08-01T12:01:14;73900.81;;;-142.05;100.00
32330;BME280;18807;52.434;13.238;2023-08-01T12:08:50;73908.97;;;-142.05;100.00
32330;BME280;18807;52.434;13.238;2023-08-01T12:16:26;73878.38;;;-142.05;100.00
32330;BME280;18807;52.434;13.238;2023-08-01T12:24:02;73884.50;;;-142.05;96.95
32330;BME280;18807;52.434;13.238;2023-08-01T12:31:39;73872.25;;;-142.05;88.15
32330;BME280;18807;52.434;13.238;2023-08-01T12:39:13;73833.50;;;-142.05;91.36
32330;BME280;18807;52.434;13.238;2023-08-01T12:46:48;73833.50;;;-142.05;88.12
32330;BME280;18807;52.434;13.238;2023-08-01T12:54:22;73833.50;;;-142.05;87.40
32330;BME280;18807;52.434;13.238;2023-08-01T13:01:58;73798.81;;;-142.05;87.45
32330;BME280;18807;52.434;13.238;2023-08-01T13:09:41;73764.16;;;-142.05;84.89
32330;BME280;18807;52.434;13.238;2023-08-01T13:17:18;73721.31;;;-142.05;81.41
32330;BME280;18807;52.434;13.238;2023-08-01T13:24:52;73713.16;;;-142.05;80.11
32330;BME280;18807;52.434;13.238;2023-08-01T13:32:28;73702.97;;;-142.05;75.80
32330;BME280;18807;52.434;13.238;2023-08-01T13:40:03;73705.00;;;-142.05;71.54
32330;BME280;18807;52.434;13.238;2023-08-01T13:47:39;73658.09;;;-142.05;73.45
32330;BME280;18807;52.434;13.238;2023-08-01T13:55:14;73615.28;;;-142.05;69.56
32330;BME280;18807;52.434;13.238;2023-08-01T14:02:52;73564.28;;;-142.05;67.90
32330;BME280;18807;52.434;13.238;2023-08-01T14:10:26;73574.47;;;-142.05;63.45
32330;BME280;18807;52.434;13.238;2023-08-01T14:18:02;73586.72;;;-142.05;61.36
32330;BME280;18807;52.434;13.238;2023-08-01T14:25:36;73615.28;;;-142.05;62.47
32330;BME280;18807;52.434;13.238;2023-08-01T14:33:12;73535.72;;;-142.05;61.47
32330;BME280;18807;52.434;13.238;2023-08-01T14:40:47;73462.31;;;-142.05;58.39
32330;BME280;18807;52.434;13.238;2023-08-01T14:48:42;73452.13;;;-142.05;57.77
32330;BME280;18807;52.434;13.238;2023-08-01T14:56:16;73458.22;;;-142.05;58.01
32330;BME280;18807;52.434;13.238;2023-08-01T15:03:53;73482.72;;;-142.05;54.44
32330;BME280;18807;52.434;13.238;2023-08-01T15:11:27;73564.28;;;-142.05;56.75
32330;BME280;18807;52.434;13.238;2023-08-01T15:19:03;73709.09;;;-142.05;67.40
32330;BME280;18807;52.434;13.238;2023-08-01T15:27:00;73788.63;;;-142.05;77.38
32330;BME280;18807;52.434;13.238;2023-08-01T15:34:38;73823.28;;;-142.05;78.00
32330;BME280;18807;52.434;13.238;2023-08-01T15:42:12;73851.84;;;-142.05;87.29
32330;BME280;18807;52.434;13.238;2023-08-01T15:49:48;73870.22;;;-142.05;76.23
32330;BME280;18807;52.434;13.238;2023-08-01T15:57:22;73884.50;;;-142.05;79.17
32330;BME280;18807;52.434;13.238;2023-08-01T16:04:58;73911.00;;;-142.05;83.35
32330;BME280;18807;52.434;13.238;2023-08-01T16:12:32;73872.25;;;-142.05;84.64
32330;BME280;18807;52.434;13.238;2023-08-01T16:20:10;73839.63;;;-142.05;78.73
32330;BME280;18807;52.434;13.238;2023-08-01T16:27:45;73774.34;;;-142.05;74.70
32330;BME280;18807;52.434;13.238;2023-08-01T16:35:20;73758.03;;;-142.05;67.46
32330;BME280;18807;52.434;13.238;2023-08-01T16:42:57;73796.78;;;-142.05;68.41
32330;BME280;18807;52.434;13.238;2023-08-01T16:50:32;73796.78;;;-142.05;67.00
32330;BME280;18807;52.434;13.238;2023-08-01T16:58:06;73804.94;;;-142.05;66.93
32330;BME280;18807;52.434;13.238;2023-08-01T17:05:42;73819.22;;;-142.05;66.61
32330;BME280;18807;52.434;13.238;2023-08-01T17:13:17;73843.69;;;-142.05;68.17
32330;BME280;18807;52.434;13.238;2023-08-01T17:20:52;73872.25;;;-142.05;69.09
32330;BME280;18807;52.434;13.238;2023-08-01T17:28:26;73913.03;;;-142.05;70.10
32330;BME280;18807;52.434;13.238;2023-08-01T17:36:03;73921.19;;;-142.05;69.39
32330;BME280;18807;52.434;13.238;2023-08-01T17:43:37;73933.44;;;-142.05;70.55
32330;BME280;18807;52.434;13.238;2023-08-01T17:51:13;73951.78;;;-142.05;66.14
32330;BME280;18807;52.434;13.238;2023-08-01T17:58:47;73992.59;;;-142.05;63.47
32330;BME280;18807;52.434;13.238;2023-08-01T18:06:23;74017.06;;;-142.05;64.47
32330;BME280;18807;52.434;13.238;2023-08-01T18:13:57;74037.47;;;-142.05;64.96
32330;BME280;18807;52.434;13.238;2023-08-01T18:21:34;74070.09;;;-142.05;66.09
32330;BME280;18807;52.434;13.238;2023-08-01T18:29:09;74094.56;;;-142.05;67.49
32330;BME280;18807;52.434;13.238;2023-08-01T18:36:45;74110.91;;;-142.05;68.19
32330;BME280;18807;52.434;13.238;2023-08-01T18:44:20;74121.09;;;-142.05;68.85
32330;BME280;18807;52.434;13.238;2023-08-01T18:51:56;74133.34;;;-142.05;68.96
32330;BME280;18807;52.434;13.238;2023-08-01T18:59:31;74139.44;;;-142.05;70.47
32330;BME280;18807;52.434;13.238;2023-08-01T19:07:06;74155.78;;;-142.05;71.25
32330;BME280;18807;52.434;13.238;2023-08-01T19:14:41;74176.16;;;-142.05;72.43
32330;BME280;18807;52.434;13.238;2023-08-01T19:22:17;74204.72;;;-142.05;74.21
32330;BME280;18807;52.434;13.238;2023-08-01T19:29:52;74225.13;;;-142.05;76.25
32330;BME280;18807;52.434;13.238;2023-08-01T19:37:28;74239.41;;;-142.05;77.91
32330;BME280;18807;52.434;13.238;2023-08-01T19:45:02;74253.69;;;-142.05;78.36
32330;BME280;18807;52.434;13.238;2023-08-01T19:52:41;74265.91;;;-142.05;77.59
32330;BME280;18807;52.434;13.238;2023-08-01T20:00:19;74276.13;;;-142.05;77.89
32330;BME280;18807;52.434;13.238;2023-08-01T20:07:55;74284.28;;;-142.05;78.13
32330;BME280;18807;52.434;13.238;2023-08-01T20:15:30;74298.56;;;-142.05;78.03
32330;BME280;18807;52.434;13.238;2023-08-01T20:23:06;74316.91;;;-142.05;77.87
32330;BME280;18807;52.434;13.238;2023-08-01T20:30:40;74331.19;;;-142.05;78.63
32330;BME280;18807;52.434;13.238;2023-08-01T20:38:15;74333.22;;;-142.05;79.47
32330;BME280;18807;52.434;13.238;2023-08-01T20:45:49;74355.69;;;-142.05;80.67
32330;BME280;18807;52.434;13.238;2023-08-01T20:53:25;74357.72;;;-142.05;82.83
32330;BME280;18807;52.434;13.238;2023-08-01T21:01:00;74363.84;;;-142.05;84.18
32330;BME280;18807;52.434;13.238;2023-08-01T21:08:38;74380.16;;;-142.05;85.53
32330;BME280;18807;52.434;13.238;2023-08-01T21:16:30;74392.41;;;-142.05;86.48
32330;BME280;18807;52.434;13.238;2023-08-01T21:24:06;74404.63;;;-142.05;85.10
32330;BME280;18807;52.434;13.238;2023-08-01T21:31:41;74412.78;;;-142.05;85.13
32330;BME280;18807;52.434;13.238;2023-08-01T21:39:17;74423.00;;;-142.05;84.74
32330;BME280;18807;52.434;13.238;2023-08-01T21:46:51;74431.16;;;-142.05;84.55
32330;BME280;18807;52.434;13.238;2023-08-01T21:54:27;74443.38;;;-142.05;83.07
32330;BME280;18807;52.434;13.238;2023-08-01T22:02:01;74449.50;;;-142.05;83.12
32330;BME280;18807;52.434;13.238;2023-08-01T22:09:37;74465.84;;;-142.05;83.49
32330;BME280;18807;52.434;13.238;2023-08-01T22:17:11;74465.84;;;-142.05;84.54
32330;BME280;18807;52.434;13.238;2023-08-01T22:24:46;74476.03;;;-142.05;85.02
32330;BME280;18807;52.434;13.238;2023-08-01T22:32:20;74492.34;;;-142.05;85.28
32330;BME280;18807;52.434;13.238;2023-08-01T22:39:57;74498.47;;;-142.05;84.33
32330;BME280;18807;52.434;13.238;2023-08-01T22:47:31;74494.38;;;-142.05;84.68
32330;BME280;18807;52.434;13.238;2023-08-01T22:55:07;74500.50;;;-142.05;85.49
32330;BME280;18807;52.434;13.238;2023-08-01T23:02:42;74486.22;;;-142.05;86.17
32330;BME280;18807;52.434;13.238;2023-08-01T23:10:18;74506.63;;;-142.05;85.59
32330;BME280;18807;52.434;13.238;2023-08-01T23:18:10;74516.84;;;-142.05;86.11
32330;BME280;18807;52.434;13.238;2023-08-01T23:25:46;74504.59;;;-142.05;86.26
32330;BME280;18807;52.434;13.238;2023-08-01T23:33:20;74504.59;;;-142.05;86.83
32330;BME280;18807;52.434;13.238;2023-08-01T23:40:56;74502.56;;;-142.05;86.34
32330;BME280;18807;52.434;13.238;2023-08-01T23:48:30;74508.66;;;-142.05;86.12
32330;BME280;18807;52.434;13.238;2023-08-01T23:56:05;74518.88;;;-142.05;87.52
